createdAt,value
2023-07-08T00:00:58.215Z,1.40
2023-07-08T00:03:27.736Z,2.22
2023-07-08T00:05:57.079Z,2.08
2023-07-08T00:08:24.114Z,2.17
2023-07-08T00:10:51.066Z,2.00
2023-07-08T00:13:20.147Z,2.35
2023-07-08T00:15:51.848Z,2.25
2023-07-08T00:18:21.508Z,2.20
2023-07-08T00:20:51.566Z,2.17
2023-07-08T00:23:23.104Z,2.22
2023-07-08T00:25:50.190Z,2.20
2023-07-08T00:28:19.396Z,2.33
2023-07-08T00:30:46.644Z,2.45
2023-07-08T00:33:13.538Z,2.17
2023-07-08T00:35:42.780Z,2.08
2023-07-08T00:38:16.450Z,2.42
2023-07-08T00:40:58.611Z,1.95
2023-07-08T00:43:37.044Z,2.67
2023-07-08T00:46:30.485Z,2.22
2023-07-08T00:49:13.594Z,2.35
2023-07-08T00:51:41.026Z,2.15
2023-07-08T00:54:16.170Z,2.08
2023-07-08T00:56:58.605Z,2.13
2023-07-08T00:59:33.502Z,2.25
2023-07-08T01:02:05.287Z,2.40
2023-07-08T01:04:38.906Z,2.40
2023-07-08T01:07:05.868Z,1.90
2023-07-08T01:09:46.080Z,2.55
2023-07-08T01:12:18.761Z,2.75
2023-07-08T01:14:47.073Z,2.58
2023-07-08T01:17:15.380Z,2.17
2023-07-08T01:19:44.658Z,2.22
2023-07-08T01:22:12.807Z,2.15
2023-07-08T01:24:46.143Z,2.22
2023-07-08T01:27:15.976Z,2.47
2023-07-08T01:29:43.112Z,2.03
2023-07-08T01:32:15.293Z,2.30
2023-07-08T01:34:42.229Z,2.45
2023-07-08T01:37:13.408Z,1.58
2023-07-08T01:39:40.193Z,1.58
2023-07-08T01:42:07.236Z,2.45
2023-07-08T01:44:36.497Z,2.47
2023-07-08T01:47:15.127Z,2.30
2023-07-08T01:49:44.167Z,2.42
2023-07-08T01:52:12.858Z,2.25
2023-07-08T01:54:39.815Z,2.15
2023-07-08T01:57:06.662Z,2.55
2023-07-08T01:59:33.488Z,2.30
2023-07-08T02:02:00.505Z,2.45
2023-07-08T02:04:27.999Z,2.10
2023-07-08T02:07:00.762Z,2.45
2023-07-08T02:09:28.020Z,2.92
2023-07-08T02:11:55.203Z,2.28
2023-07-08T02:14:22.844Z,2.42
2023-07-08T02:16:49.969Z,2.65
2023-07-08T02:19:16.835Z,3.22
2023-07-08T02:21:44.069Z,3.00
2023-07-08T02:24:11.115Z,1.90
2023-07-08T02:26:38.030Z,2.60
2023-07-08T02:29:04.913Z,1.80
2023-07-08T02:31:31.946Z,2.22
2023-07-08T02:33:58.971Z,2.88
2023-07-08T02:36:25.809Z,2.60
2023-07-08T02:38:52.676Z,2.88
2023-07-08T02:41:19.552Z,2.83
2023-07-08T02:43:46.649Z,2.80
2023-07-08T02:46:13.822Z,2.70
2023-07-08T02:48:40.662Z,2.40
2023-07-08T02:51:09.825Z,2.50
2023-07-08T02:53:36.981Z,2.40
2023-07-08T02:56:04.128Z,2.20
2023-07-08T02:58:31.023Z,2.25
2023-07-08T03:01:02.453Z,2.22
2023-07-08T03:03:30.480Z,2.58
2023-07-08T03:06:01.945Z,2.20
2023-07-08T03:08:29.311Z,2.33
2023-07-08T03:10:59.126Z,2.90
2023-07-08T03:13:26.835Z,2.67
2023-07-08T03:15:53.806Z,2.70
2023-07-08T03:18:22.573Z,2.67
2023-07-08T03:20:49.720Z,2.88
2023-07-08T03:23:17.155Z,2.75
2023-07-08T03:25:44.262Z,2.65
2023-07-08T03:28:15.183Z,2.70
2023-07-08T03:30:43.403Z,2.50
2023-07-08T03:33:11.808Z,3.00
2023-07-08T03:35:41.677Z,3.10
2023-07-08T03:38:08.595Z,3.28
2023-07-08T03:40:35.539Z,2.60
2023-07-08T03:43:02.333Z,2.00
2023-07-08T03:45:29.203Z,2.60
2023-07-08T03:47:56.039Z,3.08
2023-07-08T03:50:26.070Z,2.28
2023-07-08T03:52:54.612Z,2.47
2023-07-08T03:55:22.111Z,2.72
2023-07-08T03:57:48.951Z,2.55
2023-07-08T04:00:16.523Z,2.90
2023-07-08T04:02:44.949Z,2.88
2023-07-08T04:05:17.083Z,2.47
2023-07-08T04:07:44.158Z,2.53
2023-07-08T04:10:12.470Z,1.58
2023-07-08T04:12:40.485Z,2.20
2023-07-08T04:15:10.147Z,2.42
2023-07-08T04:17:46.497Z,2.58
2023-07-08T04:20:16.736Z,1.90
2023-07-08T04:22:43.458Z,2.10
2023-07-08T04:25:12.223Z,2.22
2023-07-08T04:27:40.030Z,2.30
2023-07-08T04:30:08.137Z,1.50
2023-07-08T04:32:35.127Z,2.70
2023-07-08T04:35:01.938Z,2.00
2023-07-08T04:37:28.715Z,2.35
2023-07-08T04:39:55.616Z,2.30
2023-07-08T04:42:22.497Z,2.42
2023-07-08T04:44:50.747Z,2.58
2023-07-08T04:47:17.860Z,2.30
2023-07-08T04:49:45.106Z,2.50
2023-07-08T04:52:11.997Z,2.42
2023-07-08T04:54:38.779Z,2.30
2023-07-08T04:57:06.031Z,2.67
2023-07-08T04:59:35.945Z,2.40
2023-07-08T05:02:10.557Z,2.40
2023-07-08T05:04:37.643Z,2.33
2023-07-08T05:07:04.729Z,2.53
2023-07-08T05:09:32.872Z,2.40
2023-07-08T05:12:00.080Z,2.30
2023-07-08T05:14:27.136Z,3.03
2023-07-08T05:16:58.596Z,2.95
2023-07-08T05:19:49.240Z,2.83
2023-07-08T05:24:45.831Z,2.30
2023-07-08T05:27:23.725Z,2.20
2023-07-08T05:30:03.432Z,3.00
2023-07-08T05:33:09.658Z,2.10
2023-07-08T05:35:43.602Z,2.65
2023-07-08T05:38:14.228Z,2.75
2023-07-08T05:40:58.721Z,2.65
2023-07-08T05:43:39.048Z,2.50
2023-07-08T05:46:12.756Z,2.03
2023-07-08T05:48:52.388Z,2.55
2023-07-08T05:51:22.306Z,2.40
2023-07-08T05:53:53.717Z,2.38
2023-07-08T05:56:34.000Z,2.17
2023-07-08T05:59:04.992Z,1.90
2023-07-08T06:01:40.525Z,2.05
2023-07-08T06:04:19.114Z,2.50
2023-07-08T06:06:50.788Z,2.50
2023-07-08T06:09:18.131Z,2.30
2023-07-08T06:11:53.969Z,2.42
2023-07-08T06:14:23.467Z,2.60
2023-07-08T06:16:53.182Z,2.10
2023-07-08T06:19:22.050Z,2.45
2023-07-08T06:21:49.467Z,2.20
2023-07-08T06:24:24.925Z,2.20
2023-07-08T06:27:02.190Z,2.47
2023-07-08T06:29:37.045Z,2.35
2023-07-08T06:32:07.230Z,2.47
2023-07-08T06:34:48.993Z,2.10
2023-07-08T06:37:26.059Z,2.38
2023-07-08T06:39:54.510Z,2.35
2023-07-08T06:42:25.435Z,2.65
2023-07-08T06:44:53.959Z,1.77
2023-07-08T06:47:24.660Z,2.40
2023-07-08T06:49:58.181Z,2.00
2023-07-08T06:55:23.002Z,2.50
2023-07-08T06:57:52.491Z,2.40
2023-07-08T07:00:22.581Z,2.30
2023-07-08T07:05:27.402Z,2.75
2023-07-08T07:07:57.726Z,2.17
2023-07-08T07:10:25.289Z,2.22
2023-07-08T07:12:52.752Z,2.30
2023-07-08T07:15:22.992Z,2.30
2023-07-08T07:17:50.259Z,2.10
2023-07-08T07:20:30.837Z,2.22
2023-07-08T07:22:59.189Z,2.63
2023-07-08T07:25:28.884Z,2.10
2023-07-08T07:27:55.813Z,2.08
2023-07-08T07:30:22.987Z,2.13
2023-07-08T07:32:49.963Z,2.45
2023-07-08T07:35:17.944Z,2.38
2023-07-08T07:37:47.782Z,2.20
2023-07-08T07:40:16.822Z,2.15
2023-07-08T07:42:46.474Z,2.47
2023-07-08T07:45:19.029Z,1.73
2023-07-08T07:47:47.533Z,1.88
2023-07-08T07:50:22.445Z,2.25
2023-07-08T07:52:49.891Z,1.83
2023-07-08T07:55:17.253Z,2.53
2023-07-08T07:57:50.788Z,2.28
2023-07-08T08:00:22.763Z,2.15
2023-07-08T08:05:20.196Z,2.35
2023-07-08T08:07:49.128Z,1.95
2023-07-08T08:10:18.418Z,2.30
2023-07-08T08:15:24.908Z,1.70
2023-07-08T08:18:02.136Z,2.08
2023-07-08T08:23:23.276Z,2.45
2023-07-08T08:26:01.939Z,2.70
2023-07-08T08:28:29.412Z,2.63
2023-07-08T08:30:56.818Z,2.80
2023-07-08T08:33:24.169Z,2.58
2023-07-08T08:35:51.257Z,2.15
2023-07-08T08:38:18.958Z,1.98
2023-07-08T08:40:46.708Z,2.17
2023-07-08T08:43:39.368Z,2.38
2023-07-08T08:46:29.610Z,2.63
2023-07-08T08:49:23.093Z,2.50
2023-07-08T08:52:00.139Z,2.55
2023-07-08T08:54:27.639Z,1.67
2023-07-08T08:57:31.602Z,2.17
2023-07-08T09:00:01.364Z,2.45
2023-07-08T09:02:58.969Z,2.53
2023-07-08T09:05:27.078Z,2.35
2023-07-08T09:08:12.230Z,1.95
2023-07-08T09:11:29.473Z,2.38
2023-07-08T09:13:58.333Z,2.40
2023-07-08T09:16:41.025Z,2.60
2023-07-08T09:19:13.850Z,2.30
2023-07-08T09:21:59.491Z,2.67
2023-07-08T09:24:50.995Z,2.47
2023-07-08T09:27:18.491Z,2.30
2023-07-08T09:29:45.653Z,2.10
2023-07-08T09:32:20.101Z,2.17
2023-07-08T09:34:56.857Z,2.67
2023-07-08T09:37:30.388Z,2.45
2023-07-08T09:39:59.371Z,2.03
2023-07-08T09:42:34.577Z,2.28
2023-07-08T09:45:07.398Z,1.90
2023-07-08T09:47:37.751Z,2.30
2023-07-08T09:50:25.075Z,2.17
2023-07-08T09:52:57.598Z,2.42
2023-07-08T09:55:31.684Z,2.20
2023-07-08T09:58:05.214Z,2.17
2023-07-08T10:00:41.915Z,1.92
2023-07-08T10:03:22.934Z,2.40
2023-07-08T10:05:50.987Z,2.05
2023-07-08T10:08:23.853Z,2.17
2023-07-08T10:11:13.147Z,2.08
2023-07-08T10:14:11.596Z,2.72
2023-07-08T10:16:41.496Z,1.55
2023-07-08T10:19:17.976Z,2.80
2023-07-08T10:22:16.322Z,2.10
2023-07-08T10:25:07.059Z,2.17
2023-07-08T10:27:49.269Z,1.85
2023-07-08T10:30:16.657Z,2.40
2023-07-08T10:33:00.527Z,2.28
2023-07-08T10:36:10.574Z,2.40
2023-07-08T10:39:06.358Z,1.83
2023-07-08T10:41:51.911Z,1.90
2023-07-08T10:44:49.254Z,2.13
2023-07-08T10:47:31.028Z,2.30
2023-07-08T10:50:10.059Z,1.65
2023-07-08T10:53:09.990Z,1.92
2023-07-08T10:56:00.790Z,2.15
2023-07-08T10:59:07.126Z,2.22
2023-07-08T11:01:55.726Z,1.85
2023-07-08T11:04:28.697Z,1.55
2023-07-08T11:07:09.642Z,2.30
2023-07-08T11:09:45.214Z,2.53
2023-07-08T11:12:49.105Z,2.00
2023-07-08T11:15:31.568Z,2.53
2023-07-08T11:18:32.742Z,2.17
2023-07-08T11:21:16.255Z,2.33
2023-07-08T11:24:03.078Z,2.03
2023-07-08T11:26:47.901Z,1.60
2023-07-08T11:29:38.706Z,2.40
2023-07-08T11:32:07.848Z,2.10
2023-07-08T11:34:37.879Z,2.10
2023-07-08T11:37:07.009Z,1.92
2023-07-08T11:39:35.915Z,2.40
2023-07-08T11:42:42.055Z,1.98
2023-07-08T11:45:47.749Z,2.42
2023-07-08T11:48:24.196Z,1.63
2023-07-08T11:50:53.111Z,1.90
2023-07-08T11:53:48.038Z,2.38
2023-07-08T11:56:20.945Z,2.33
2023-07-08T11:59:15.457Z,2.20
2023-07-08T12:02:03.240Z,2.28
2023-07-08T12:04:42.916Z,2.13
2023-07-08T12:07:21.783Z,2.08
2023-07-08T12:10:02.052Z,2.40
2023-07-08T12:12:38.972Z,2.30
2023-07-08T12:15:24.010Z,2.30
2023-07-08T12:17:57.137Z,2.60
2023-07-08T12:20:35.847Z,2.20
2023-07-08T12:23:04.984Z,2.28
2023-07-08T12:25:41.703Z,2.65
2023-07-08T12:28:28.685Z,1.60
2023-07-08T12:30:59.142Z,2.15
2023-07-08T12:33:33.653Z,1.50
2023-07-08T12:36:05.669Z,2.03
2023-07-08T12:38:41.270Z,1.80
2023-07-08T12:43:57.682Z,2.25
2023-07-08T12:46:26.337Z,1.92
2023-07-08T12:49:09.247Z,2.67
2023-07-08T12:51:46.721Z,2.33
2023-07-08T12:54:15.678Z,1.85
2023-07-08T12:57:07.800Z,2.05
2023-07-08T13:02:24.813Z,2.20
2023-07-08T13:05:01.612Z,2.10
2023-07-08T13:08:05.273Z,3.05
2023-07-08T13:10:31.571Z,2.85
2023-07-08T13:13:05.962Z,2.33
2023-07-08T13:15:40.587Z,2.80
2023-07-08T13:18:22.240Z,2.42
2023-07-08T13:20:53.844Z,2.80
2023-07-08T13:23:23.020Z,2.60
2023-07-08T13:25:51.881Z,2.30
2023-07-08T13:28:25.170Z,2.17
2023-07-08T13:31:00.821Z,2.55
2023-07-08T13:33:33.821Z,2.90
2023-07-08T13:36:06.169Z,2.20
2023-07-08T13:38:36.454Z,2.88
2023-07-08T13:41:05.680Z,2.72
2023-07-08T13:43:36.711Z,2.50
2023-07-08T13:46:04.434Z,2.67
2023-07-08T13:48:41.684Z,2.70
2023-07-08T13:51:18.865Z,2.20
2023-07-08T13:53:47.110Z,2.33
2023-07-08T13:56:30.247Z,2.72
2023-07-08T13:59:03.126Z,2.55
2023-07-08T14:01:31.500Z,2.33
2023-07-08T14:03:59.208Z,2.63
2023-07-08T14:06:32.226Z,3.00
2023-07-08T14:09:10.669Z,2.65
2023-07-08T14:11:37.650Z,2.75
2023-07-08T14:14:04.807Z,2.70
2023-07-08T14:16:36.333Z,2.65
2023-07-08T14:19:10.710Z,1.85
2023-07-08T14:21:38.056Z,2.60
2023-07-08T14:24:15.215Z,2.78
2023-07-08T14:26:44.538Z,2.65
2023-07-08T14:31:39.098Z,2.65
2023-07-08T14:34:12.901Z,2.90
2023-07-08T14:36:44.557Z,2.40
2023-07-08T14:39:19.440Z,1.83
2023-07-08T14:41:48.645Z,2.80
2023-07-08T14:44:31.783Z,3.20
2023-07-08T14:46:59.439Z,2.42
2023-07-08T14:49:31.627Z,3.00
2023-07-08T14:51:59.061Z,3.08
2023-07-08T14:54:26.004Z,2.47
2023-07-08T14:56:56.968Z,3.13
2023-07-08T14:59:27.920Z,2.50
2023-07-08T15:02:01.308Z,2.60
2023-07-08T15:04:56.151Z,2.50
2023-07-08T15:07:37.379Z,2.65
2023-07-08T15:10:05.017Z,2.35
2023-07-08T15:12:35.799Z,2.78
2023-07-08T15:15:04.404Z,2.75
2023-07-08T15:17:33.848Z,2.53
2023-07-08T15:20:12.643Z,2.60
2023-07-08T15:22:55.595Z,2.60
2023-07-08T15:25:35.459Z,2.50
2023-07-08T15:28:10.686Z,2.67
2023-07-08T15:30:38.835Z,2.75
2023-07-08T15:33:17.549Z,3.00
2023-07-08T15:35:47.702Z,2.38
2023-07-08T15:38:14.700Z,2.45
2023-07-08T15:40:41.776Z,2.47
2023-07-08T15:43:15.245Z,2.78
2023-07-08T15:45:42.947Z,2.55
2023-07-08T15:48:21.698Z,2.47
2023-07-08T15:50:51.918Z,1.92
2023-07-08T15:53:31.426Z,2.65
2023-07-08T15:55:59.232Z,2.35
2023-07-08T15:58:34.938Z,2.70
2023-07-08T16:01:03.764Z,2.58
2023-07-08T16:03:33.506Z,2.78
2023-07-08T16:08:27.827Z,2.80
2023-07-08T16:11:19.796Z,2.42
2023-07-08T16:13:50.634Z,2.53
2023-07-08T16:16:17.955Z,2.53
2023-07-08T16:18:47.313Z,2.90
2023-07-08T16:21:16.385Z,3.30
2023-07-08T16:23:43.758Z,2.40
2023-07-08T16:26:17.095Z,2.42
2023-07-08T16:28:51.715Z,2.45
2023-07-08T16:31:23.045Z,2.45
2023-07-08T16:33:52.762Z,2.85
2023-07-08T16:36:23.508Z,2.83
2023-07-08T16:38:51.082Z,2.47
2023-07-08T16:41:20.890Z,2.67
2023-07-08T16:43:54.356Z,2.80
2023-07-08T16:46:21.946Z,2.80
2023-07-08T16:48:51.583Z,3.00
2023-07-08T16:51:26.525Z,2.70
2023-07-08T16:54:13.868Z,3.08
2023-07-08T16:56:41.466Z,3.25
2023-07-08T16:59:08.901Z,3.17
2023-07-08T17:01:36.369Z,2.22
2023-07-08T17:04:06.009Z,3.10
2023-07-08T17:06:33.065Z,2.60
2023-07-08T17:09:04.624Z,2.80
2023-07-08T17:11:31.993Z,3.10
2023-07-08T17:14:12.599Z,3.05
2023-07-08T17:16:45.325Z,3.20
2023-07-08T17:19:15.051Z,3.00
2023-07-08T17:21:42.926Z,2.28
2023-07-08T17:24:13.976Z,2.90
2023-07-08T17:26:41.716Z,3.17
2023-07-08T17:29:20.627Z,3.55
2023-07-08T17:32:18.512Z,4.20
2023-07-08T17:34:57.580Z,3.47
2023-07-08T17:37:31.597Z,3.10
2023-07-08T17:40:06.571Z,3.03
2023-07-08T17:42:34.020Z,3.38
2023-07-08T17:45:01.167Z,2.47
2023-07-08T17:47:28.968Z,3.03
2023-07-08T17:49:55.962Z,3.00
2023-07-08T17:52:23.014Z,3.05
2023-07-08T17:54:49.903Z,2.90
2023-07-08T17:57:18.642Z,2.75
2023-07-08T17:59:55.147Z,2.70
2023-07-08T18:02:26.791Z,3.25
2023-07-08T18:04:56.746Z,3.13
2023-07-08T18:07:27.891Z,3.10
2023-07-08T18:10:00.159Z,3.00
2023-07-08T18:12:27.355Z,3.45
2023-07-08T18:14:54.572Z,3.40
2023-07-08T18:17:21.897Z,3.55
2023-07-08T18:19:50.071Z,2.90
2023-07-08T18:22:17.512Z,3.17
2023-07-08T18:24:46.932Z,3.03
2023-07-08T18:27:59.695Z,3.20
2023-07-08T18:30:26.304Z,3.45
2023-07-08T18:33:06.833Z,2.95
2023-07-08T18:35:41.083Z,2.60
2023-07-08T18:38:10.289Z,3.70
2023-07-08T18:40:43.628Z,2.92
2023-07-08T18:43:22.830Z,3.35
2023-07-08T18:45:50.625Z,3.90
2023-07-08T18:48:27.441Z,3.33
2023-07-08T18:50:58.704Z,3.25
2023-07-08T18:53:25.867Z,3.03
2023-07-08T18:55:52.940Z,2.97
2023-07-08T18:58:20.695Z,3.30
2023-07-08T19:00:49.246Z,2.53
2023-07-08T19:03:26.802Z,3.35
2023-07-08T19:05:55.152Z,3.00
2023-07-08T19:08:23.402Z,2.97
2023-07-08T19:10:56.210Z,3.10
2023-07-08T19:13:25.273Z,3.30
2023-07-08T19:15:53.538Z,3.13
2023-07-08T19:18:20.763Z,3.28
2023-07-08T19:20:49.722Z,3.58
2023-07-08T19:23:21.741Z,3.30
2023-07-08T19:25:48.549Z,3.08
2023-07-08T19:28:15.308Z,3.10
2023-07-08T19:30:44.050Z,3.03
2023-07-08T19:33:17.325Z,3.10
2023-07-08T19:35:47.104Z,3.22
2023-07-08T19:38:16.668Z,3.17
2023-07-08T19:40:51.676Z,3.08
2023-07-08T19:43:22.985Z,2.78
2023-07-08T19:45:50.016Z,3.33
2023-07-08T19:48:17.170Z,3.17
2023-07-08T19:50:44.062Z,3.17
2023-07-08T19:53:12.751Z,3.15
2023-07-08T19:55:40.310Z,2.90
2023-07-08T19:58:12.136Z,2.75
2023-07-08T20:00:44.550Z,3.33
2023-07-08T20:03:13.062Z,3.08
2023-07-08T20:05:40.620Z,3.72
2023-07-08T20:08:13.260Z,3.65
2023-07-08T20:10:40.057Z,3.60
2023-07-08T20:13:11.119Z,3.60
2023-07-08T20:15:42.527Z,3.35
2023-07-08T20:18:14.360Z,3.38
2023-07-08T20:20:41.597Z,3.33
2023-07-08T20:23:13.882Z,3.15
2023-07-08T20:25:43.962Z,3.50
2023-07-08T20:28:12.740Z,2.95
2023-07-08T20:30:39.974Z,3.67
2023-07-08T20:33:07.651Z,3.28
2023-07-08T20:35:37.220Z,3.63
2023-07-08T20:38:04.214Z,3.25
2023-07-08T20:40:36.214Z,3.40
2023-07-08T20:43:03.885Z,3.17
2023-07-08T20:45:32.836Z,2.92
2023-07-08T20:48:01.149Z,3.33
2023-07-08T20:50:29.610Z,2.20
2023-07-08T20:52:59.549Z,2.85
2023-07-08T20:55:26.615Z,3.20
2023-07-08T20:57:54.360Z,2.97
2023-07-08T21:00:29.993Z,2.67
2023-07-08T21:02:58.576Z,2.85
2023-07-08T21:05:28.104Z,2.22
2023-07-08T21:07:57.326Z,2.72
2023-07-08T21:10:25.655Z,2.70
2023-07-08T21:12:53.938Z,3.00
2023-07-08T21:15:25.704Z,2.90
2023-07-08T21:17:52.639Z,3.00
2023-07-08T21:20:26.119Z,2.97
2023-07-08T21:22:56.454Z,3.08
2023-07-08T21:25:27.798Z,2.92
2023-07-08T21:27:54.819Z,3.10
2023-07-08T21:30:24.827Z,3.00
2023-07-08T21:32:54.492Z,3.10
2023-07-08T21:35:24.642Z,3.47
2023-07-08T21:37:54.960Z,3.50
2023-07-08T21:40:34.402Z,3.38
2023-07-08T21:43:01.687Z,2.97
2023-07-08T21:45:30.793Z,3.20
2023-07-08T21:47:59.923Z,2.85
2023-07-08T21:50:28.746Z,2.53
2023-07-08T21:53:01.826Z,3.65
2023-07-08T21:55:28.826Z,2.78
2023-07-08T21:57:55.727Z,2.70
2023-07-08T22:00:22.737Z,3.67
2023-07-08T22:02:52.062Z,2.63
2023-07-08T22:05:21.691Z,3.08
2023-07-08T22:07:49.529Z,2.85
2023-07-08T22:10:23.180Z,2.63
2023-07-08T22:12:50.325Z,3.10
2023-07-08T22:15:22.361Z,2.72
2023-07-08T22:17:52.024Z,3.05
2023-07-08T22:20:21.331Z,3.13
2023-07-08T22:22:48.558Z,3.28
2023-07-08T22:25:17.144Z,3.10
2023-07-08T22:27:44.045Z,3.40
2023-07-08T22:30:11.655Z,3.13
2023-07-08T22:32:38.636Z,2.50
2023-07-08T22:35:07.838Z,2.88
2023-07-08T22:37:34.924Z,2.95
2023-07-08T22:40:02.167Z,3.05
2023-07-08T22:42:30.075Z,2.95
2023-07-08T22:44:59.017Z,3.40
2023-07-08T22:47:26.018Z,2.90
2023-07-08T22:49:52.878Z,3.20
2023-07-08T22:52:27.616Z,3.13
2023-07-08T22:54:56.281Z,3.00
2023-07-08T22:57:23.104Z,2.97
2023-07-08T22:59:49.998Z,3.20
2023-07-08T23:02:16.928Z,3.13
2023-07-08T23:04:43.830Z,3.05
2023-07-08T23:07:13.871Z,2.97
2023-07-08T23:09:40.953Z,2.83
2023-07-08T23:12:10.623Z,2.83
2023-07-08T23:14:37.584Z,2.85
2023-07-08T23:17:10.507Z,2.95
2023-07-08T23:19:37.296Z,3.20
2023-07-08T23:22:04.312Z,3.35
2023-07-08T23:24:33.822Z,3.22
2023-07-08T23:27:00.727Z,3.53
2023-07-08T23:29:27.530Z,3.60
2023-07-08T23:31:54.647Z,3.38
2023-07-08T23:34:21.668Z,3.33
2023-07-08T23:36:52.616Z,3.45
2023-07-08T23:39:23.747Z,3.70
2023-07-08T23:41:51.934Z,4.00
2023-07-08T23:44:21.641Z,3.53
2023-07-08T23:47:00.277Z,2.80
2023-07-08T23:49:33.053Z,3.20
2023-07-08T23:52:01.176Z,3.78
2023-07-08T23:54:30.487Z,2.90
2023-07-08T23:56:59.349Z,3.35
2023-07-08T23:59:30.254Z,3.72
